createdAt,value
2019-05-14T00:02:42.026Z,71.21
2019-05-14T00:07:48.720Z,71.88
2019-05-14T00:12:53.915Z,71.88
2019-05-14T00:18:01.182Z,72.91
2019-05-14T00:23:07.154Z,74.46
2019-05-14T00:28:12.496Z,77.13
2019-05-14T00:33:17.858Z,77.60
2019-05-14T00:38:23.418Z,78.46
2019-05-14T00:43:28.646Z,78.46
2019-05-14T00:48:34.350Z,78.96
2019-05-14T00:53:41.963Z,79.06
2019-05-14T00:58:47.424Z,79.45
2019-05-14T01:03:52.760Z,79.17
2019-05-14T01:08:58.338Z,78.33
2019-05-14T01:14:04.007Z,77.05
2019-05-14T01:19:09.248Z,76.53
2019-05-14T01:24:14.643Z,76.05
2019-05-14T01:29:21.948Z,76.17
2019-05-14T01:34:27.509Z,76.89
2019-05-14T01:39:33.157Z,78.76
2019-05-14T01:44:38.544Z,78.44
2019-05-14T01:49:43.794Z,78.42
2019-05-14T01:54:51.416Z,78.25
2019-05-14T01:59:56.434Z,77.48
2019-05-14T02:05:02.156Z,76.56
2019-05-14T02:10:08.964Z,75.24
2019-05-14T02:15:15.904Z,74.10
2019-05-14T02:20:21.690Z,73.20
2019-05-14T02:25:27.730Z,72.16
2019-05-14T02:30:48.138Z,70.68
2019-05-14T02:35:40.544Z,70.83
2019-05-14T02:40:49.109Z,69.83
2019-05-14T02:46:09.023Z,69.33
2019-05-14T02:51:01.330Z,69.32
2019-05-14T02:56:10.060Z,70.02
2019-05-14T03:01:13.702Z,71.21
2019-05-14T03:06:20.066Z,71.09
2019-05-14T03:11:29.426Z,71.08
2019-05-14T03:16:35.778Z,69.22
2019-05-14T03:21:40.511Z,70.04
2019-05-14T03:26:45.880Z,69.20
2019-05-14T03:31:53.186Z,69.55
2019-05-14T03:37:03.315Z,68.97
2019-05-14T03:42:09.220Z,69.04
2019-05-14T03:47:13.747Z,68.64
2019-05-14T03:52:20.034Z,68.91
2019-05-14T03:57:28.951Z,66.80
2019-05-14T04:02:33.408Z,66.48
2019-05-14T04:07:40.108Z,66.37
2019-05-14T04:12:49.393Z,65.83
2019-05-14T04:17:59.561Z,64.18
2019-05-14T04:23:09.382Z,64.69
2019-05-14T04:28:19.385Z,65.80
2019-05-14T04:33:30.318Z,63.71
2019-05-14T04:38:33.961Z,63.06
2019-05-14T04:43:40.249Z,63.23
2019-05-14T04:48:50.509Z,63.67
2019-05-14T04:53:54.758Z,62.46
2019-05-14T04:59:00.213Z,62.83
2019-05-14T05:04:05.397Z,64.18
2019-05-14T05:09:10.843Z,63.01
2019-05-14T05:14:19.041Z,61.45
2019-05-14T05:19:23.398Z,62.27
2019-05-14T05:24:28.940Z,62.51
2019-05-14T05:29:34.417Z,61.31
2019-05-14T05:34:39.969Z,61.71
2019-05-14T05:39:45.345Z,60.70
2019-05-14T05:44:50.819Z,61.50
2019-05-14T05:49:58.142Z,60.01
2019-05-14T05:55:03.457Z,61.10
2019-05-14T06:00:10.999Z,60.59
2019-05-14T06:05:18.553Z,59.70
2019-05-14T06:10:23.425Z,60.43
2019-05-14T06:15:44.190Z,61.19
2019-05-14T06:20:38.515Z,59.05
2019-05-14T06:25:43.182Z,59.51
2019-05-14T06:30:48.626Z,60.42
2019-05-14T06:35:53.853Z,58.21
2019-05-14T06:40:59.534Z,58.21
2019-05-14T06:46:05.251Z,59.06
2019-05-14T06:51:10.458Z,58.58
2019-05-14T06:56:18.849Z,58.42
2019-05-14T07:01:22.648Z,60.01
2019-05-14T07:06:29.033Z,60.04
2019-05-14T07:11:34.703Z,59.03
2019-05-14T07:16:40.207Z,59.39
2019-05-14T07:21:48.957Z,59.16
2019-05-14T07:26:53.255Z,59.00
2019-05-14T07:31:58.797Z,59.08
2019-05-14T07:37:04.201Z,57.87
2019-05-14T07:42:10.121Z,58.89
2019-05-14T07:47:18.444Z,57.77
2019-05-14T07:52:23.217Z,57.78
2019-05-14T07:57:28.689Z,58.22
2019-05-14T08:02:34.978Z,58.58
2019-05-14T08:07:40.403Z,57.89
2019-05-14T08:12:45.760Z,57.48
2019-05-14T08:17:51.473Z,59.02
2019-05-14T08:22:58.214Z,57.65
2019-05-14T08:28:03.691Z,56.97
2019-05-14T08:33:09.756Z,57.42
2019-05-14T08:38:15.214Z,57.41
2019-05-14T08:43:20.502Z,57.45
2019-05-14T08:48:25.857Z,57.18
2019-05-14T08:53:31.441Z,58.19
2019-05-14T08:58:38.478Z,57.04
2019-05-14T09:03:44.079Z,56.12
2019-05-14T09:08:49.974Z,56.92
2019-05-14T09:13:55.616Z,57.34
2019-05-14T09:19:01.499Z,57.70
2019-05-14T09:24:09.396Z,56.47
2019-05-14T09:29:22.147Z,57.44
2019-05-14T09:34:21.129Z,55.89
2019-05-14T09:39:26.284Z,54.82
2019-05-14T09:44:34.524Z,54.62
2019-05-14T09:49:40.399Z,55.45
2019-05-14T09:54:45.556Z,54.60
2019-05-14T09:59:50.892Z,54.47
2019-05-14T10:04:56.146Z,55.58
2019-05-14T10:10:01.425Z,54.81
2019-05-14T10:15:09.030Z,54.61
2019-05-14T10:20:32.192Z,54.94
2019-05-14T10:25:22.804Z,53.78
2019-05-14T10:30:28.658Z,53.81
2019-05-14T10:35:34.504Z,53.66
2019-05-14T10:40:39.914Z,54.29
2019-05-14T10:45:45.403Z,54.21
2019-05-14T10:50:59.935Z,54.92
2019-05-14T10:55:58.362Z,54.63
2019-05-14T11:01:03.814Z,53.47
2019-05-14T11:06:11.628Z,53.07
2019-05-14T11:11:18.517Z,53.86
2019-05-14T11:16:23.449Z,54.07
2019-05-14T11:21:30.216Z,54.01
2019-05-14T11:26:35.660Z,53.55
2019-05-14T11:31:41.133Z,54.44
2019-05-14T11:36:49.726Z,54.21
2019-05-14T11:41:54.758Z,53.66
2019-05-14T11:47:02.683Z,54.17
2019-05-14T11:52:11.509Z,54.71
2019-05-14T11:57:14.727Z,54.71
2019-05-14T12:02:19.800Z,54.52
2019-05-14T12:07:24.917Z,54.48
2019-05-14T12:12:30.394Z,55.33
2019-05-14T12:17:38.963Z,55.03
2019-05-14T12:22:42.889Z,54.98
2019-05-14T12:27:49.530Z,54.66
2019-05-14T12:32:55.156Z,55.01
2019-05-14T12:38:00.525Z,55.17
2019-05-14T12:43:05.925Z,56.61
2019-05-14T12:48:11.402Z,55.20
2019-05-14T12:53:19.706Z,55.73
2019-05-14T12:58:24.069Z,55.12
2019-05-14T13:03:29.425Z,54.59
2019-05-14T13:08:35.174Z,51.38
2019-05-14T13:13:42.888Z,50.12
2019-05-14T13:18:49.838Z,48.55
2019-05-14T13:23:54.572Z,49.47
2019-05-14T13:28:59.838Z,47.86
2019-05-14T13:34:05.133Z,49.00
2019-05-14T13:39:10.687Z,45.94
2019-05-14T13:44:24.200Z,47.13
2019-05-14T13:49:23.371Z,45.88
2019-05-14T13:54:31.648Z,46.00
2019-05-14T13:59:43.766Z,45.21
2019-05-14T14:04:43.545Z,43.77
2019-05-14T14:09:49.825Z,43.77
2019-05-14T14:14:58.117Z,43.71
2019-05-14T14:20:02.559Z,45.24
2019-05-14T14:25:09.255Z,44.92
2019-05-14T14:30:15.160Z,41.93
2019-05-14T14:35:23.577Z,42.66
2019-05-14T14:40:30.078Z,43.50
2019-05-14T14:45:34.482Z,42.28
2019-05-14T14:50:39.766Z,41.87
2019-05-14T14:55:45.110Z,41.32
2019-05-14T15:00:50.232Z,43.05
2019-05-14T15:05:55.453Z,42.31
2019-05-14T15:11:01.216Z,42.13
2019-05-14T15:16:12.727Z,41.09
2019-05-14T15:21:13.837Z,41.43
2019-05-14T15:26:19.505Z,39.92
2019-05-14T15:31:24.811Z,41.63
2019-05-14T15:36:30.269Z,41.05
2019-05-14T15:41:39.123Z,41.06
2019-05-14T15:46:43.066Z,42.36
2019-05-14T15:51:48.392Z,41.23
2019-05-14T15:56:54.090Z,41.84
2019-05-14T16:01:59.202Z,42.77
2019-05-14T16:07:05.661Z,40.57
2019-05-14T16:12:11.222Z,43.49
2019-05-14T16:17:23.586Z,47.49
2019-05-14T16:22:23.900Z,48.66
2019-05-14T16:27:29.983Z,48.87
2019-05-14T16:32:35.445Z,47.47
2019-05-14T16:37:40.918Z,45.74
2019-05-14T16:42:48.451Z,43.41
2019-05-14T16:47:53.411Z,41.76
2019-05-14T16:52:59.059Z,40.96
2019-05-14T16:58:04.801Z,42.51
2019-05-14T17:03:10.484Z,44.61
2019-05-14T17:08:18.805Z,47.23
2019-05-14T17:13:23.040Z,48.63
2019-05-14T17:18:28.768Z,49.55
2019-05-14T17:23:34.256Z,49.98
2019-05-14T17:28:40.419Z,51.06
2019-05-14T17:33:46.185Z,51.28
2019-05-14T17:38:51.445Z,51.78
2019-05-14T17:43:58.616Z,52.33
2019-05-14T17:49:04.568Z,52.26
2019-05-14T17:54:10.175Z,52.38
2019-05-14T17:59:18.731Z,52.34
2019-05-14T18:04:22.689Z,51.99
2019-05-14T18:09:29.278Z,51.94
2019-05-14T18:14:34.775Z,52.52
2019-05-14T18:19:40.011Z,53.17
2019-05-14T18:24:45.453Z,53.13
2019-05-14T18:29:51.199Z,53.83
2019-05-14T18:34:58.177Z,54.15
2019-05-14T18:40:03.993Z,54.11
2019-05-14T18:45:10.144Z,53.41
2019-05-14T18:50:16.216Z,54.11
2019-05-14T18:55:21.670Z,53.90
2019-05-14T19:00:29.377Z,55.05
2019-05-14T19:05:34.565Z,54.74
2019-05-14T19:10:39.977Z,54.96
2019-05-14T19:15:45.377Z,55.22
2019-05-14T19:20:50.612Z,55.22
2019-05-14T19:25:55.893Z,55.45
2019-05-14T19:31:01.251Z,55.35
2019-05-14T19:36:10.926Z,55.47
2019-05-14T19:41:20.980Z,56.38
2019-05-14T19:46:24.755Z,56.02
2019-05-14T19:51:30.330Z,56.68
2019-05-14T19:56:49.523Z,56.87
2019-05-14T20:01:42.805Z,56.86
2019-05-14T20:06:49.346Z,57.37
2019-05-14T20:11:54.967Z,57.42
2019-05-14T20:17:00.307Z,58.48
2019-05-14T20:22:05.719Z,58.48
2019-05-14T20:27:12.371Z,58.02
2019-05-14T20:32:19.416Z,58.30
2019-05-14T20:37:25.338Z,58.20
2019-05-14T20:42:30.805Z,58.88
2019-05-14T20:47:36.064Z,59.46
2019-05-14T20:52:41.419Z,59.46
2019-05-14T20:57:48.771Z,59.32
2019-05-14T21:02:53.723Z,59.50
2019-05-14T21:07:59.237Z,59.61
2019-05-14T21:13:04.826Z,59.97
2019-05-14T21:18:10.076Z,60.49
2019-05-14T21:23:15.270Z,60.45
2019-05-14T21:28:20.574Z,60.67
2019-05-14T21:33:25.845Z,60.67
2019-05-14T21:38:31.388Z,60.73
2019-05-14T21:43:38.555Z,60.73
2019-05-14T21:48:43.557Z,61.38
2019-05-14T21:53:48.998Z,61.45
2019-05-14T21:58:55.215Z,61.62
2019-05-14T22:04:00.508Z,61.77
2019-05-14T22:09:08.710Z,62.09
2019-05-14T22:14:14.236Z,61.99
2019-05-14T22:19:19.785Z,61.82
2019-05-14T22:24:25.130Z,62.49
2019-05-14T22:29:30.311Z,62.75
2019-05-14T22:34:38.382Z,62.90
2019-05-14T22:39:43.741Z,63.92
2019-05-14T22:44:50.373Z,63.92
2019-05-14T22:49:58.984Z,63.86
2019-05-14T22:55:02.927Z,63.11
2019-05-14T23:00:10.594Z,63.84
2019-05-14T23:05:19.258Z,63.84
2019-05-14T23:10:24.636Z,63.89
2019-05-14T23:15:31.012Z,64.01
2019-05-14T23:20:39.105Z,64.01
2019-05-14T23:25:43.990Z,64.50
2019-05-14T23:30:49.247Z,64.60
2019-05-14T23:35:55.314Z,64.94
2019-05-14T23:41:01.116Z,64.94
2019-05-14T23:46:06.240Z,65.14
2019-05-14T23:51:11.897Z,65.20
2019-05-14T23:56:19.369Z,65.42
